Time;durP1;ratioP1;P1;durP2;ratioP2;P2;SDS_P1;SDS_P2;PMS_P1;PMS_P2;Temp;Humidity;BMP_temperature;BMP_pressure;BME280_temperature;BME280_humidity;BME280_pressure;Samples;Min_cycle;Max_cycle;Signal;HPM_P1;HPM_P2
2021/07/09 00:04:31;;;;;;;17.75;15.53;;;;;;;23.02;79.99;99051.13;4276304;82;20999;-81
2021/07/09 00:10:32;;;;;;;18.42;16.12;;;;;;;22.98;80.15;99054.05;4327018;82;21092;-80
2021/07/09 00:16:33;;;;;;;17.75;15.50;;;;;;;23.00;80.16;99042.42;4330050;82;21023;-81
2021/07/09 00:22:34;;;;;;;16.87;14.55;;;;;;;22.96;80.46;99036.97;4331184;81;21039;-80
2021/07/09 00:28:37;;;;;;;18.52;16.30;;;;;;;23.02;80.87;99041.36;4335373;81;21078;-80
2021/07/09 00:34:38;;;;;;;22.35;16.52;;;;;;;23.08;80.72;99039.52;4229959;82;21062;-81
2021/07/09 00:40:39;;;;;;;18.42;15.98;;;;;;;22.92;80.79;99019.59;4333962;81;21091;-80
2021/07/09 00:46:42;;;;;;;21.75;16.23;;;;;;;22.86;80.82;99026.22;4335905;80;21084;-80
2021/07/09 00:52:44;;;;;;;18.30;16.40;;;;;;;22.85;81.24;99032.41;4268082;83;21106;-80
2021/07/09 00:58:47;;;;;;;17.10;15.13;;;;;;;22.76;81.57;99020.41;4282853;82;20989;-80
2021/07/09 01:04:48;;;;;;;18.07;15.03;;;;;;;22.77;81.74;99022.73;4293516;81;21129;-79
2021/07/09 01:10:49;;;;;;;20.40;16.27;;;;;;;22.77;81.89;99031.75;4293097;81;21086;-80
2021/07/09 01:16:50;;;;;;;17.62;15.72;;;;;;;22.82;81.75;99025.55;4290148;82;21049;-79
2021/07/09 01:22:51;;;;;;;21.20;15.55;;;;;;;22.74;82.08;99021.50;4290922;82;20959;-80
2021/07/09 01:28:53;;;;;;;16.55;14.83;;;;;;;22.76;82.17;99028.78;4280118;82;21521;-80
2021/07/09 01:34:54;;;;;;;19.77;16.95;;;;;;;22.61;82.42;99031.94;4288022;82;21083;-80
2021/07/09 01:40:56;;;;;;;19.45;14.95;;;;;;;22.60;82.46;98999.68;4277200;82;21045;-81
2021/07/09 01:46:58;;;;;;;18.67;16.23;;;;;;;22.65;82.86;99012.44;4295428;81;21118;-80
2021/07/09 01:53:01;;;;;;;16.37;14.78;;;;;;;22.64;82.73;98991.97;4333342;81;21115;-80
2021/07/09 01:59:02;;;;;;;19.55;16.60;;;;;;;22.51;83.00;99000.98;4345759;81;21087;-80
2021/07/09 02:05:07;;;;;;;19.73;15.05;;;;;;;22.49;83.12;98988.14;4338110;81;21051;-80
2021/07/09 02:11:09;;;;;;;20.52;15.80;;;;;;;22.55;83.45;98998.89;4329346;81;21078;-80
2021/07/09 02:17:13;;;;;;;18.92;15.25;;;;;;;22.54;83.19;98988.34;4326834;81;21075;-81
2021/07/09 02:23:16;;;;;;;21.33;16.00;;;;;;;22.53;83.61;98997.17;4330842;81;21046;-80
2021/07/09 02:29:17;;;;;;;23.45;16.32;;;;;;;22.39;83.61;99004.02;4329594;81;21024;-81
2021/07/09 02:35:22;;;;;;;23.73;16.77;;;;;;;22.33;84.03;98999.48;4332191;81;22234;-81
2021/07/09 02:41:26;;;;;;;21.33;16.55;;;;;;;22.27;84.10;99001.30;4313290;81;21030;-81
2021/07/09 02:47:28;;;;;;;19.42;16.27;;;;;;;22.29;84.10;99009.96;4326880;80;21221;-80
2021/07/09 02:53:29;;;;;;;21.82;15.13;;;;;;;22.26;84.47;98996.93;4298426;81;21016;-80
2021/07/09 02:59:30;;;;;;;18.30;13.90;;;;;;;22.27;84.53;99002.05;4291670;81;21085;-80
2021/07/09 03:05:32;;;;;;;24.92;18.48;;;;;;;22.42;84.39;99021.24;4296964;81;20967;-81
2021/07/09 03:11:34;;;;;;;21.20;16.37;;;;;;;22.25;84.29;99006.53;4301547;81;21064;-81
2021/07/09 03:17:36;;;;;;;19.50;16.48;;;;;;;22.08;84.61;99000.34;4289805;81;21124;-81
2021/07/09 03:23:37;;;;;;;24.25;18.12;;;;;;;22.17;84.80;99012.20;4280112;81;21041;-81
2021/07/09 03:29:38;;;;;;;18.75;15.40;;;;;;;22.07;84.65;99002.97;4275905;81;21100;-81
2021/07/09 03:35:40;;;;;;;21.48;16.95;;;;;;;21.99;84.77;98997.48;4296105;81;21017;-81
2021/07/09 03:41:41;;;;;;;18.75;16.82;;;;;;;21.95;85.37;98998.23;4297887;82;21004;-80
2021/07/09 03:47:43;;;;;;;22.60;17.02;;;;;;;21.85;85.88;99018.87;4309021;80;21690;-81
2021/07/09 03:53:44;;;;;;;21.80;17.17;;;;;;;22.02;85.58;99013.30;4356530;80;21015;-80
2021/07/09 03:59:45;;;;;;;23.15;17.32;;;;;;;22.03;85.69;99003.73;4286909;82;22341;-81
2021/07/09 04:05:47;;;;;;;22.70;17.27;;;;;;;;;;4294759;82;21029;-82
2021/07/09 04:11:48;;;;;;;19.70;17.60;;;;;;;;;;4300819;82;21087;-81
2021/07/09 04:17:49;;;;;;;19.15;17.02;;;;;;;22.13;86.39;99012.95;4350761;80;21584;-81
2021/07/09 04:23:51;;;;;;;20.02;17.90;;;;;;;22.27;86.26;99012.45;4355145;80;21472;-81
2021/07/09 04:29:53;;;;;;;24.47;17.73;;;;;;;22.39;86.65;99008.20;4344808;80;20994;-81
2021/07/09 04:35:54;;;;;;;21.70;16.73;;;;;;;22.50;86.61;98997.44;4046662;81;23588;-81
2021/07/09 04:41:55;;;;;;;24.27;18.52;;;;;;;22.56;86.54;99006.80;4031682;87;21457;-81
2021/07/09 04:47:56;;;;;;;21.75;17.02;;;;;;;22.62;86.67;98993.83;4034492;85;21123;-81
2021/07/09 04:53:58;;;;;;;19.10;16.42;;;;;;;22.70;86.60;98990.93;4008412;87;21095;-81
2021/07/09 05:00:00;;;;;;;19.30;16.37;;;;;;;22.89;86.67;99004.37;4014758;87;21173;-81
2021/07/09 05:06:01;;;;;;;22.77;18.15;;;;;;;23.03;86.36;99010.80;4015340;87;21048;-82
2021/07/09 05:12:05;;;;;;;21.70;17.57;;;;;;;23.17;86.05;99003.27;4011665;87;21006;-81
2021/07/09 05:18:06;;;;;;;21.95;18.10;;;;;;;23.35;85.96;98991.42;4008568;87;21068;-81
2021/07/09 05:24:10;;;;;;;21.30;16.62;;;;;;;23.47;85.74;98976.55;3979232;87;21592;-83
2021/07/09 05:30:11;;;;;;;18.00;14.45;;;;;;;23.53;85.56;98996.44;3977452;87;21031;-82
2021/07/09 05:36:12;;;;;;;24.18;16.05;;;;;;;23.75;85.37;98997.72;3970586;88;21039;-82
2021/07/09 05:42:14;;;;;;;19.77;15.23;;;;;;;24.03;84.98;98988.16;4006400;87;21032;-81
2021/07/09 05:48:15;;;;;;;24.50;15.00;;;;;;;24.15;84.66;98984.45;4006421;87;21030;-81
2021/07/09 05:54:17;;;;;;;22.67;14.80;;;;;;;24.23;84.47;98982.88;4026862;87;21550;-82
2021/07/09 06:00:18;;;;;;;22.27;15.48;;;;;;;24.40;84.08;98989.73;4026974;87;21105;-81
2021/07/09 06:06:20;;;;;;;19.05;15.25;;;;;;;24.56;83.75;98993.57;4026973;87;21041;-82
2021/07/09 06:12:21;;;;;;;17.90;14.25;;;;;;;24.73;83.49;98979.41;4026053;87;21013;-82
2021/07/09 06:18:23;;;;;;;20.00;14.43;;;;;;;24.89;83.40;98976.88;4028507;87;21497;-81
2021/07/09 06:24:24;;;;;;;19.35;14.80;;;;;;;25.07;82.93;98970.62;4032483;87;21048;-83
2021/07/09 06:30:25;;;;;;;18.95;14.03;;;;;;;25.30;82.48;98969.10;4032150;87;21648;-82
2021/07/09 06:36:29;;;;;;;18.15;14.43;;;;;;;25.43;81.93;98977.48;4027499;87;21023;-84
2021/07/09 06:42:30;;;;;;;20.75;15.15;;;;;;;25.61;81.45;98966.16;4026860;87;21037;-81
2021/07/09 06:48:31;;;;;;;18.50;12.53;;;;;;;25.83;80.94;98970.06;4030067;87;21480;-83
2021/07/09 06:54:32;;;;;;;22.25;13.35;;;;;;;26.02;80.72;98972.30;4050753;86;21034;-83
2021/07/09 07:00:35;;;;;;;20.02;13.90;;;;;;;26.27;79.79;98975.20;4043400;87;21088;-82
2021/07/09 07:06:36;;;;;;;15.90;12.60;;;;;;;26.63;79.06;98965.65;4055783;85;21034;-81
2021/07/09 07:12:38;;;;;;;17.30;13.00;;;;;;;27.14;78.47;98948.54;4086064;87;21466;-82
2021/07/09 07:18:40;;;;;;;19.20;12.05;;;;;;;27.78;77.50;98947.06;4053063;87;21034;-83
2021/07/09 07:24:41;;;;;;;16.32;11.43;;;;;;;28.53;76.19;98938.50;4026241;87;21038;-83
2021/07/09 07:30:43;;;;;;;14.10;11.10;;;;;;;29.07;74.97;98941.67;4049097;87;20987;-83
2021/07/09 07:36:44;;;;;;;15.08;11.08;;;;;;;29.69;73.41;98941.59;4058194;87;21113;-81
2021/07/09 07:42:47;;;;;;;20.23;11.50;;;;;;;29.88;71.55;98938.45;4055525;87;21509;-83
2021/07/09 07:48:48;;;;;;;16.73;11.60;;;;;;;30.04;70.86;98940.57;4061916;86;21068;-82
2021/07/09 07:54:50;;;;;;;18.20;13.00;;;;;;;30.38;69.21;98911.83;4033546;87;21060;-84
2021/07/09 08:00:52;;;;;;;18.82;12.47;;;;;;;30.13;67.69;98903.64;4034034;87;21062;-82
2021/07/09 08:06:53;;;;;;;13.30;10.68;;;;;;;30.42;67.74;98895.39;4032938;87;21045;-85
2021/07/09 08:12:54;;;;;;;13.65;10.88;;;;;;;30.69;66.47;98886.80;4034168;87;21581;-84
2021/07/09 08:18:56;;;;;;;14.58;11.22;;;;;;;30.76;65.13;98892.73;4033151;87;21482;-83
2021/07/09 08:24:57;;;;;;;13.90;11.57;;;;;;;30.75;64.41;98898.23;4032336;87;20980;-83
2021/07/09 08:30:59;;;;;;;16.00;10.45;;;;;;;30.75;63.38;98901.06;4033446;88;21055;-83
2021/07/09 08:37:00;;;;;;;17.70;11.80;;;;;;;30.58;62.79;98888.21;4022580;87;21486;-84
2021/07/09 08:43:03;;;;;;;14.15;10.70;;;;;;;30.60;62.17;98899.15;4031881;87;21061;-84
2021/07/09 08:49:09;;;;;;;12.58;10.93;;;;;;;30.62;61.08;98889.50;4038897;87;21022;-82
2021/07/09 08:55:12;;;;;;;11.88;9.58;;;;;;;30.69;60.83;98887.58;4051261;86;22069;-83
2021/07/09 09:01:14;;;;;;;12.37;9.95;;;;;;;30.77;59.88;98879.39;4056750;87;21842;-81
2021/07/09 09:07:15;;;;;;;12.53;10.18;;;;;;;30.79;59.05;98876.83;4054202;86;21165;-83
2021/07/09 09:13:23;;;;;;;13.78;10.82;;;;;;;30.85;58.04;98877.59;4042670;87;21046;-83
2021/07/09 09:19:24;;;;;;;11.48;9.53;;;;;;;30.96;57.46;98866.27;4054664;87;22354;-81
2021/07/09 09:25:30;;;;;;;13.35;10.08;;;;;;;31.09;56.71;98875.00;4049273;87;21049;-84
2021/07/09 09:31:35;;;;;;;;;;;;;;;31.12;56.27;98883.20;4047430;87;21064;-83
2021/07/09 09:37:43;;;;;;;14.07;9.95;;;;;;;30.97;56.06;98882.72;4052483;86;20511;-83
2021/07/09 09:43:46;;;;;;;14.13;10.32;;;;;;;30.81;56.47;98879.25;4046490;87;21078;-83
2021/07/09 09:49:58;;;;;;;12.20;9.63;;;;;;;30.62;56.35;98877.45;4035850;87;21065;-84
2021/07/09 09:56:07;;;;;;;10.80;9.70;;;;;;;30.52;56.49;98869.20;4007922;87;21166;-83
2021/07/09 10:02:08;;;;;;;11.57;10.38;;;;;;;30.55;56.46;98849.81;3999783;87;21067;-82
2021/07/09 10:08:13;;;;;;;13.85;9.85;;;;;;;31.22;56.15;98829.33;4004678;88;21010;-84
2021/07/09 10:14:19;;;;;;;10.68;9.15;;;;;;;31.82;55.11;98847.38;4012049;86;21036;-84
2021/07/09 10:20:21;;;;;;;10.53;9.50;;;;;;;31.38;54.12;98858.24;3955566;88;21047;-83
2021/07/09 10:26:23;;;;;;;11.50;9.75;;;;;;;30.99;54.44;98845.45;3961786;90;21170;-83
2021/07/09 10:32:43;;;;;;;10.08;8.73;;;;;;;30.84;55.01;98838.66;4045916;87;21062;-84
2021/07/09 10:38:45;;;;;;;12.90;9.38;;;;;;;30.96;55.63;98850.73;4021126;87;21030;-82
2021/07/09 10:45:04;;;;;;;10.98;9.55;;;;;;;30.88;56.42;98852.53;4021203;87;21556;-83
2021/07/09 10:51:05;;;;;;;11.65;9.20;;;;;;;30.57;55.70;98848.55;3998054;85;20997;-83
2021/07/09 10:57:22;;;;;;;13.53;10.00;;;;;;;30.78;56.00;98846.38;4041923;87;21044;-83
2021/07/09 11:03:43;;;;;;;13.85;9.95;;;;;;;31.44;56.63;98841.23;4038149;87;21064;-83
2021/07/09 11:09:42;;;;;;;12.53;10.82;;;;;;;31.57;56.51;98835.13;4047242;87;21052;-83
2021/07/09 11:15:44;;;;;;;16.93;10.38;;;;;;;31.24;57.23;98827.40;4045465;85;21040;-83
2021/07/09 11:21:54;;;;;;;17.17;12.10;;;;;;;31.09;57.94;98824.11;4043631;87;21041;-84
2021/07/09 11:27:56;;;;;;;22.55;12.85;;;;;;;30.73;59.00;98830.83;4041867;87;21052;-83
2021/07/09 11:34:07;;;;;;;16.32;11.20;;;;;;;30.48;59.41;98846.10;4042177;87;21033;-83
2021/07/09 11:40:16;;;;;;;13.38;10.03;;;;;;;30.21;59.86;98860.96;4031620;87;21490;-84
2021/07/09 11:46:14;;;;;;;14.13;9.85;;;;;;;29.67;59.37;98860.92;4040523;87;21064;-81
2021/07/09 11:52:25;;;;;;;9.48;5.30;;;;;;;29.15;59.75;98860.23;4037085;87;21620;-82
2021/07/09 11:58:28;;;;;;;8.50;5.10;;;;;;;28.26;58.89;98848.25;4028020;87;21565;-82
2021/07/09 12:04:35;;;;;;;7.78;5.47;;;;;;;27.40;58.50;98865.16;4029348;87;21068;-82
2021/07/09 12:10:39;;;;;;;12.05;4.70;;;;;;;26.66;58.42;98886.09;4020136;87;21549;-82
2021/07/09 12:16:41;;;;;;;14.00;6.60;;;;;;;25.83;59.33;98912.58;4028042;87;20977;-79
2021/07/09 12:23:04;;;;;;;29.55;7.30;;;;;;;23.20;65.49;98954.27;4030988;87;21037;-81
2021/07/09 12:29:06;;;;;;;16.93;6.87;;;;;;;23.20;65.49;98954.27;4029570;87;21869;-80
2021/07/09 12:35:10;;;;;;;11.35;5.90;;;;;;;21.30;66.39;98825.36;4025582;87;21037;-80
2021/07/09 12:41:13;;;;;;;10.53;5.28;;;;;;;21.09;69.94;98883.16;4030662;87;21027;-80
2021/07/09 12:47:15;;;;;;;8.68;6.10;;;;;;;21.07;74.62;98906.48;4027425;87;22270;-80
2021/07/09 12:53:22;;;;;;;8.80;5.50;;;;;;;21.03;71.61;98919.70;4027079;86;21032;-79
2021/07/09 12:59:27;;;;;;;12.95;6.80;;;;;;;21.17;72.92;98920.64;4025354;87;21037;-79
2021/07/09 13:05:28;;;;;;;8.93;5.28;;;;;;;21.43;74.60;98904.68;4026277;87;21567;-78
2021/07/09 13:11:41;;;;;;;11.43;5.90;;;;;;;21.41;74.12;98901.56;4024592;87;21009;-79
2021/07/09 13:17:40;;;;;;;9.65;5.60;;;;;;;21.48;74.61;98886.02;4026810;87;20984;-79
2021/07/09 13:23:44;;;;;;;11.83;6.15;;;;;;;21.68;75.79;98894.85;4024914;87;21081;-78
2021/07/09 13:29:47;;;;;;;8.70;6.42;;;;;;;21.86;76.14;98863.00;4019220;87;21077;-79
2021/07/09 13:35:54;;;;;;;13.68;7.97;;;;;;;22.16;76.69;98878.98;4012579;87;21045;-78
2021/07/09 13:41:53;;;;;;;14.35;9.30;;;;;;;22.31;77.08;98903.73;4023896;87;21926;-78
2021/07/09 13:47:56;;;;;;;11.10;8.93;;;;;;;22.31;78.12;98935.80;4023157;87;21082;-78
2021/07/09 13:54:06;;;;;;;14.07;9.00;;;;;;;22.41;78.67;98937.39;4028521;87;21605;-78
2021/07/09 14:00:09;;;;;;;12.65;9.10;;;;;;;22.71;79.03;98940.06;4028970;87;21113;-79
2021/07/09 14:06:12;;;;;;;17.57;9.93;;;;;;;22.99;79.37;98906.25;4028814;87;21005;-79
2021/07/09 14:12:14;;;;;;;13.03;9.30;;;;;;;23.43;80.17;98933.39;4033054;87;21023;-79
2021/07/09 14:18:17;;;;;;;14.60;9.33;;;;;;;23.58;79.66;98935.77;4030540;87;20984;-79
2021/07/09 14:24:18;;;;;;;22.85;10.85;;;;;;;23.75;79.90;98942.61;4027530;87;21537;-79
2021/07/09 14:30:20;;;;;;;17.65;9.30;;;;;;;23.99;79.94;98948.41;4027211;87;20993;-79
2021/07/09 14:36:22;;;;;;;15.83;9.00;;;;;;;24.11;79.62;98933.48;4035394;83;49303;-79
2021/07/09 14:42:24;;;;;;;13.95;8.13;;;;;;;24.27;79.92;98938.14;4131148;85;23939;-80
2021/07/09 14:48:26;;;;;;;11.22;7.75;;;;;;;24.35;79.62;98954.73;4140831;84;21059;-80
2021/07/09 14:54:27;;;;;;;12.88;8.53;;;;;;;24.26;79.44;98945.58;4131938;84;28075;-80
2021/07/09 15:00:28;;;;;;;11.33;7.50;;;;;;;24.20;79.66;98941.24;4137318;84;21119;-80
2021/07/09 15:06:30;;;;;;;11.48;7.80;;;;;;;24.20;80.04;98941.24;4138754;84;21001;-80
2021/07/09 15:12:31;;;;;;;13.30;8.33;;;;;;;24.42;80.03;98929.86;4136386;84;21805;-81
2021/07/09 15:18:32;;;;;;;14.15;7.80;;;;;;;24.72;79.99;98929.50;4128169;84;21600;-80
2021/07/09 15:24:33;;;;;;;12.35;8.93;;;;;;;24.91;79.32;98916.38;4130667;84;21036;-78
2021/07/09 15:30:36;;;;;;;11.80;7.72;;;;;;;25.06;79.31;98891.28;4136215;84;21024;-80
2021/07/09 15:36:38;;;;;;;10.23;7.58;;;;;;;25.16;79.19;98880.94;4143282;84;21064;-79
2021/07/09 15:42:39;;;;;;;15.18;8.23;;;;;;;25.23;79.04;98864.41;4141698;84;21564;-80
2021/07/09 15:48:41;;;;;;;10.15;7.67;;;;;;;25.31;78.92;98867.01;4139882;84;21041;-80
2021/07/09 15:54:43;;;;;;;15.48;7.70;;;;;;;25.28;78.46;98877.12;4144727;84;21353;-80
2021/07/09 16:00:46;;;;;;;12.20;7.33;;;;;;;25.14;79.13;98882.03;4139439;84;21052;-80
2021/07/09 16:06:49;;;;;;;12.68;6.90;;;;;;;25.06;79.23;98868.22;4140868;84;21087;-79
2021/07/09 16:12:51;;;;;;;11.83;6.70;;;;;;;25.03;79.29;98853.77;4137076;84;21517;-79
2021/07/09 16:18:52;;;;;;;14.98;8.03;;;;;;;24.91;79.25;98861.00;4139519;84;21048;-79
2021/07/09 16:24:53;;;;;;;11.88;7.40;;;;;;;24.86;79.02;98877.82;4142897;84;21103;-79
2021/07/09 16:30:55;;;;;;;13.70;6.58;;;;;;;24.89;79.19;98884.48;4136019;84;21048;-80
2021/07/09 16:36:56;;;;;;;8.43;6.65;;;;;;;24.87;78.71;98880.77;4138353;84;21584;-80
2021/07/09 16:42:58;;;;;;;14.43;7.03;;;;;;;24.81;78.72;98879.11;4145669;84;21517;-80
2021/07/09 16:48:59;;;;;;;11.80;6.83;;;;;;;24.71;78.85;98892.36;4146500;84;21098;-80
2021/07/09 16:55:00;;;;;;;10.05;8.28;;;;;;;24.65;78.98;98925.77;4013358;84;9999689;-81
2021/07/09 17:01:02;;;;;;;13.48;11.75;;;;;;;24.47;79.71;98934.22;4114079;85;21039;-79
2021/07/09 17:07:04;;;;;;;19.55;14.43;;;;;;;24.32;79.64;98985.05;4113143;85;21609;-80
2021/07/09 17:13:05;;;;;;;17.02;13.83;;;;;;;24.20;79.25;98983.80;4117626;85;20976;-79
2021/07/09 17:19:06;;;;;;;18.17;12.75;;;;;;;24.04;78.95;98988.33;4116820;85;21053;-80
2021/07/09 17:25:08;;;;;;;17.32;12.93;;;;;;;23.88;78.94;98992.78;4109837;85;22333;-80
2021/07/09 17:31:10;;;;;;;17.92;11.78;;;;;;;23.72;78.82;98988.88;4120280;85;21041;-79
2021/07/09 17:37:11;;;;;;;18.45;13.03;;;;;;;23.59;78.46;98988.21;4116002;85;21009;-80
2021/07/09 17:43:13;;;;;;;20.25;12.05;;;;;;;23.50;78.27;98989.59;4122754;85;21655;-81
2021/07/09 17:49:14;;;;;;;18.02;11.25;;;;;;;23.40;78.40;99021.55;4121908;85;21013;-80
2021/07/09 17:55:16;;;;;;;19.73;10.55;;;;;;;23.20;78.24;99007.92;4130974;84;21541;-81
2021/07/09 18:01:17;;;;;;;13.45;8.98;;;;;;;22.98;78.52;99030.31;4137621;84;20992;-80
2021/07/09 18:07:18;;;;;;;11.63;8.85;;;;;;;22.85;78.36;99048.36;4138442;84;21127;-80
2021/07/09 18:13:19;;;;;;;10.88;8.78;;;;;;;22.68;78.36;99043.61;4138378;84;21075;-80
2021/07/09 18:19:22;;;;;;;12.15;9.35;;;;;;;22.53;78.73;99062.12;4141944;84;21953;-80
2021/07/09 18:25:25;;;;;;;14.60;9.20;;;;;;;22.46;79.04;99069.91;4145854;84;21080;-79
2021/07/09 18:31:27;;;;;;;13.58;8.18;;;;;;;22.43;79.28;99073.60;4141954;84;21388;-80
2021/07/09 18:37:28;;;;;;;17.20;8.58;;;;;;;22.41;79.72;99062.14;4141701;84;21012;-80
2021/07/09 18:43:30;;;;;;;13.20;8.68;;;;;;;22.38;80.04;99072.81;4136728;84;21076;-80
2021/07/09 18:49:31;;;;;;;16.45;8.23;;;;;;;22.34;80.17;99088.87;4140851;84;21636;-80
2021/07/09 18:55:34;;;;;;;10.08;7.97;;;;;;;22.30;80.42;99093.80;4129147;84;21049;-79
2021/07/09 19:01:35;;;;;;;14.30;8.65;;;;;;;22.18;80.65;99100.96;3994682;85;10000185;-80
2021/07/09 19:07:36;;;;;;;17.35;9.43;;;;;;;22.21;80.77;99111.81;4121745;85;21160;-80
2021/07/09 19:13:38;;;;;;;14.87;8.58;;;;;;;22.09;80.88;99123.18;4121870;85;21163;-80
2021/07/09 19:19:40;;;;;;;12.63;8.63;;;;;;;;;;4109221;85;21025;-80
2021/07/09 19:25:41;;;;;;;14.13;7.97;;;;;;;21.93;81.11;99152.57;4014636;86;21125;-81
2021/07/09 19:31:43;;;;;;;11.80;8.45;;;;;;;21.87;81.63;99154.36;4116305;85;21039;-80
2021/07/09 19:37:46;;;;;;;20.77;7.85;;;;;;;21.91;81.89;99155.02;4117493;85;21619;-80
2021/07/09 19:43:47;;;;;;;14.10;7.12;;;;;;;21.90;82.02;99152.67;4108162;85;21842;-80
2021/07/09 19:49:48;;;;;;;14.55;6.60;;;;;;;21.83;82.17;99151.52;4116335;85;21051;-79
2021/07/09 19:55:50;;;;;;;10.60;7.10;;;;;;;21.85;82.46;99144.27;4052430;86;21229;-79
2021/07/09 20:01:51;;;;;;;13.35;7.42;;;;;;;21.78;82.37;99138.94;4159875;84;21043;-80
2021/07/09 20:07:53;;;;;;;11.78;6.50;;;;;;;21.71;82.66;99124.58;4173575;84;21055;-80
2021/07/09 20:13:54;;;;;;;10.05;5.78;;;;;;;21.66;82.61;99102.84;4174609;84;21017;-80
2021/07/09 20:19:55;;;;;;;9.48;5.78;;;;;;;21.42;82.50;99100.21;4182529;84;21055;-82
2021/07/09 20:25:57;;;;;;;11.35;5.42;;;;;;;21.29;82.61;99109.19;4163770;84;21028;-80
2021/07/09 20:31:58;;;;;;;21.17;6.17;;;;;;;21.31;82.82;99113.68;4164714;84;21043;-79
2021/07/09 20:38:00;;;;;;;13.72;5.35;;;;;;;21.36;83.12;99105.41;4180777;84;21071;-79
2021/07/09 20:44:02;;;;;;;10.58;5.10;;;;;;;21.36;83.20;99108.95;4178067;84;21023;-79
2021/07/09 20:50:06;;;;;;;12.82;5.10;;;;;;;21.31;83.33;99094.19;4162534;84;21011;-80
2021/07/09 20:56:07;;;;;;;9.20;5.62;;;;;;;21.29;83.23;99087.52;4200637;83;21014;-79
2021/07/09 21:02:10;;;;;;;6.08;4.62;;;;;;;21.17;83.35;99097.40;4214632;83;21042;-79
2021/07/09 21:08:13;;;;;;;7.33;4.37;;;;;;;21.15;83.09;99113.00;4201992;83;21005;-80
2021/07/09 21:14:14;;;;;;;6.92;4.15;;;;;;;21.07;83.43;99132.52;4206880;83;21056;-80
2021/07/09 21:20:16;;;;;;;8.50;4.03;;;;;;;21.12;83.49;99131.98;4203823;83;21036;-78
2021/07/09 21:26:17;;;;;;;8.45;3.65;;;;;;;21.14;83.60;99123.97;4207221;83;21502;-80
2021/07/09 21:32:19;;;;;;;6.80;4.53;;;;;;;21.20;83.63;99123.59;4205635;83;21525;-80
2021/07/09 21:38:21;;;;;;;9.95;4.67;;;;;;;20.99;83.31;99131.94;4198355;83;21019;-80
2021/07/09 21:44:22;;;;;;;15.60;4.85;;;;;;;20.85;83.48;99141.27;4144180;84;21047;-80
2021/07/09 21:50:23;;;;;;;12.13;4.37;;;;;;;20.94;83.94;99133.84;4146156;84;21033;-82
2021/07/09 21:56:25;;;;;;;9.28;5.00;;;;;;;20.86;83.65;99133.87;4148134;84;21051;-80
2021/07/09 22:02:27;;;;;;;11.05;5.37;;;;;;;20.74;83.74;99130.44;4087588;85;21084;-79
2021/07/09 22:08:28;;;;;;;11.97;4.72;;;;;;;20.75;83.99;99130.59;4208979;83;21000;-80
2021/07/09 22:14:30;;;;;;;8.43;4.47;;;;;;;20.52;84.29;99129.45;4204710;83;21028;-79
2021/07/09 22:20:31;;;;;;;7.72;3.70;;;;;;;20.53;84.66;99142.13;4043686;86;21036;-79
2021/07/09 22:26:32;;;;;;;10.90;3.55;;;;;;;20.59;84.44;99138.22;4109979;85;21022;-80
2021/07/09 22:32:33;;;;;;;7.42;3.85;;;;;;;20.59;84.39;99146.56;4127145;84;21016;-80
2021/07/09 22:38:35;;;;;;;10.30;3.85;;;;;;;20.49;84.17;99154.56;4143690;84;21015;-79
2021/07/09 22:44:37;;;;;;;8.85;3.80;;;;;;;20.34;83.90;99170.06;4078959;85;21035;-80
2021/07/09 22:50:39;;;;;;;9.33;3.10;;;;;;;20.24;83.55;99185.79;4206416;83;21058;-79
2021/07/09 22:56:40;;;;;;;12.63;3.55;;;;;;;20.27;84.06;99184.13;4194165;83;21059;-80
2021/07/09 23:02:41;;;;;;;6.53;2.90;;;;;;;20.30;84.16;99197.18;4189040;84;21003;-80
2021/07/09 23:08:42;;;;;;;6.97;3.02;;;;;;;20.32;83.66;99201.08;4185863;84;20964;-80
2021/07/09 23:14:44;;;;;;;5.40;2.50;;;;;;;20.29;83.19;99188.65;4188589;84;21039;-79
2021/07/09 23:20:46;;;;;;;3.55;1.50;;;;;;;20.22;82.94;99172.16;4189531;84;21078;-80
2021/07/09 23:26:47;;;;;;;3.47;1.98;;;;;;;20.10;82.27;99218.06;4188857;84;21064;-79
2021/07/09 23:32:48;;;;;;;6.50;1.82;;;;;;;19.90;81.69;99231.23;4186602;84;21016;-79
2021/07/09 23:38:49;;;;;;;6.30;2.40;;;;;;;19.78;81.15;99238.86;4188051;84;21008;-80
2021/07/09 23:44:51;;;;;;;7.40;2.08;;;;;;;19.81;81.76;99207.44;4187530;84;20983;-80
2021/07/09 23:50:53;;;;;;;7.95;1.75;;;;;;;19.87;81.62;99205.71;4187413;84;21024;-79
2021/07/09 23:56:54;;;;;;;8.10;2.85;;;;;;;19.88;82.24;99194.77;4206480;83;21090;-81
